sensor_id;sensor_type;location;lat;lon;timestamp;noise_LAeq;noise_LA_min;noise_LA_max;noise_LA01;noise_LA95
61249;Laerm;47119;49.130;9.218;2022-12-20T00:01:49;44.95;32.62;62.21;;
61249;Laerm;47119;49.130;9.218;2022-12-20T00:04:18;37.12;31.95;47.02;;
61249;Laerm;47119;49.130;9.218;2022-12-20T00:06:45;38.26;32.77;50.02;;
61249;Laerm;47119;49.130;9.218;2022-12-20T00:09:12;37.53;31.70;47.53;;
61249;Laerm;47119;49.130;9.218;2022-12-20T00:11:40;39.00;32.47;53.28;;
61249;Laerm;47119;49.130;9.218;2022-12-20T00:14:08;38.13;32.08;51.87;;
61249;Laerm;47119;49.130;9.218;2022-12-20T00:16:36;36.57;32.50;46.86;;
61249;Laerm;47119;49.130;9.218;2022-12-20T00:19:06;47.57;31.56;67.64;;
61249;Laerm;47119;49.130;9.218;2022-12-20T00:21:35;40.33;32.19;51.16;;
61249;Laerm;47119;49.130;9.218;2022-12-20T00:24:06;43.70;31.63;63.53;;
61249;Laerm;47119;49.130;9.218;2022-12-20T00:26:36;38.21;31.75;46.46;;
61249;Laerm;47119;49.130;9.218;2022-12-20T00:29:06;41.91;31.32;52.82;;
61249;Laerm;47119;49.130;9.218;2022-12-20T00:31:33;37.95;31.71;49.87;;
61249;Laerm;47119;49.130;9.218;2022-12-20T00:34:04;38.66;31.95;49.24;;
61249;Laerm;47119;49.130;9.218;2022-12-20T00:36:32;35.57;31.80;44.25;;
61249;Laerm;47119;49.130;9.218;2022-12-20T00:39:01;43.29;32.66;60.49;;
61249;Laerm;47119;49.130;9.218;2022-12-20T00:41:30;36.42;31.65;45.07;;
61249;Laerm;47119;49.130;9.218;2022-12-20T00:43:59;38.18;32.32;51.08;;
61249;Laerm;47119;49.130;9.218;2022-12-20T00:46:27;40.12;31.57;52.46;;
61249;Laerm;47119;49.130;9.218;2022-12-20T00:48:56;35.93;32.13;49.32;;
61249;Laerm;47119;49.130;9.218;2022-12-20T00:51:28;47.38;31.88;64.93;;
61249;Laerm;47119;49.130;9.218;2022-12-20T00:54:01;36.23;31.76;44.28;;
61249;Laerm;47119;49.130;9.218;2022-12-20T00:56:28;37.01;32.48;47.34;;
61249;Laerm;47119;49.130;9.218;2022-12-20T00:58:58;38.12;32.73;53.03;;
61249;Laerm;47119;49.130;9.218;2022-12-20T01:01:27;40.23;33.15;63.41;;
61249;Laerm;47119;49.130;9.218;2022-12-20T01:03:59;44.33;34.90;61.19;;
61249;Laerm;47119;49.130;9.218;2022-12-20T01:06:27;36.31;31.67;51.90;;
61249;Laerm;47119;49.130;9.218;2022-12-20T01:08:55;37.74;32.40;56.30;;
61249;Laerm;47119;49.130;9.218;2022-12-20T01:11:27;40.39;32.32;52.53;;
61249;Laerm;47119;49.130;9.218;2022-12-20T01:13:58;39.23;33.50;51.11;;
61249;Laerm;47119;49.130;9.218;2022-12-20T01:16:28;38.06;32.06;47.11;;
61249;Laerm;47119;49.130;9.218;2022-12-20T01:18:56;37.02;31.84;52.80;;
61249;Laerm;47119;49.130;9.218;2022-12-20T01:21:25;38.05;32.45;51.68;;
61249;Laerm;47119;49.130;9.218;2022-12-20T01:23:53;38.93;33.92;64.42;;
61249;Laerm;47119;49.130;9.218;2022-12-20T01:26:25;40.91;33.64;55.21;;
61249;Laerm;47119;49.130;9.218;2022-12-20T01:28:55;38.89;33.06;62.18;;
61249;Laerm;47119;49.130;9.218;2022-12-20T01:31:23;39.89;32.48;59.56;;
61249;Laerm;47119;49.130;9.218;2022-12-20T01:33:51;39.94;33.71;70.02;;
61249;Laerm;47119;49.130;9.218;2022-12-20T01:36:22;39.12;32.54;55.25;;
61249;Laerm;47119;49.130;9.218;2022-12-20T01:38:54;41.17;32.35;57.73;;
61249;Laerm;47119;49.130;9.218;2022-12-20T01:41:22;38.10;32.26;56.73;;
61249;Laerm;47119;49.130;9.218;2022-12-20T01:43:53;43.15;31.61;63.03;;
61249;Laerm;47119;49.130;9.218;2022-12-20T01:46:23;40.94;32.86;59.28;;
61249;Laerm;47119;49.130;9.218;2022-12-20T01:48:58;37.86;32.69;58.11;;
61249;Laerm;47119;49.130;9.218;2022-12-20T01:51:29;39.88;33.11;57.01;;
61249;Laerm;47119;49.130;9.218;2022-12-20T01:54:05;37.64;32.56;68.46;;
61249;Laerm;47119;49.130;9.218;2022-12-20T01:56:35;44.40;33.64;62.55;;
61249;Laerm;47119;49.130;9.218;2022-12-20T01:59:04;44.21;32.88;62.26;;
61249;Laerm;47119;49.130;9.218;2022-12-20T02:01:33;39.34;32.92;66.17;;
61249;Laerm;47119;49.130;9.218;2022-12-20T02:04:00;42.09;34.83;60.41;;
61249;Laerm;47119;49.130;9.218;2022-12-20T02:06:31;42.14;33.22;66.90;;
61249;Laerm;47119;49.130;9.218;2022-12-20T02:09:02;48.35;33.35;67.03;;
61249;Laerm;47119;49.130;9.218;2022-12-20T02:11:59;45.94;32.98;78.39;;
61249;Laerm;47119;49.130;9.218;2022-12-20T02:14:52;41.34;32.80;59.88;;
61249;Laerm;47119;49.130;9.218;2022-12-20T02:17:34;42.50;33.90;59.40;;
61249;Laerm;47119;49.130;9.218;2022-12-20T02:20:57;39.63;33.21;61.23;;
61249;Laerm;47119;49.130;9.218;2022-12-20T02:27:34;39.09;31.26;58.78;;
61249;Laerm;47119;49.130;9.218;2022-12-20T02:30:13;37.77;31.89;61.51;;
61249;Laerm;47119;49.130;9.218;2022-12-20T02:32:51;40.27;32.84;57.37;;
61249;Laerm;47119;49.130;9.218;2022-12-20T02:35:26;46.10;32.48;65.09;;
61249;Laerm;47119;49.130;9.218;2022-12-20T02:37:57;42.56;31.80;61.13;;
61249;Laerm;47119;49.130;9.218;2022-12-20T02:40:29;46.06;32.39;65.27;;
61249;Laerm;47119;49.130;9.218;2022-12-20T02:43:03;40.37;33.11;59.44;;
61249;Laerm;47119;49.130;9.218;2022-12-20T02:45:58;39.79;33.61;57.63;;
61249;Laerm;47119;49.130;9.218;2022-12-20T02:48:31;42.86;34.59;56.04;;
61249;Laerm;47119;49.130;9.218;2022-12-20T02:51:03;36.42;31.74;52.58;;
61249;Laerm;47119;49.130;9.218;2022-12-20T02:53:36;36.22;31.94;54.04;;
61249;Laerm;47119;49.130;9.218;2022-12-20T02:56:11;39.58;33.08;51.62;;
61249;Laerm;47119;49.130;9.218;2022-12-20T02:58:45;35.58;31.83;55.35;;
61249;Laerm;47119;49.130;9.218;2022-12-20T03:01:22;46.65;33.42;61.66;;
61249;Laerm;47119;49.130;9.218;2022-12-20T03:03:54;43.51;31.90;61.84;;
61249;Laerm;47119;49.130;9.218;2022-12-20T03:06:21;42.71;31.94;60.53;;
61249;Laerm;47119;49.130;9.218;2022-12-20T03:08:48;38.11;32.11;53.91;;
61249;Laerm;47119;49.130;9.218;2022-12-20T03:11:15;43.82;31.01;61.17;;
61249;Laerm;47119;49.130;9.218;2022-12-20T03:13:42;40.05;32.08;50.35;;
61249;Laerm;47119;49.130;9.218;2022-12-20T03:16:10;36.16;32.04;57.48;;
61249;Laerm;47119;49.130;9.218;2022-12-20T03:18:41;42.29;31.81;57.62;;
61249;Laerm;47119;49.130;9.218;2022-12-20T03:21:10;43.34;32.21;56.13;;
61249;Laerm;47119;49.130;9.218;2022-12-20T03:23:37;36.58;31.27;52.09;;
61249;Laerm;47119;49.130;9.218;2022-12-20T03:26:06;37.71;32.37;48.46;;
61249;Laerm;47119;49.130;9.218;2022-12-20T03:28:41;44.16;33.17;61.82;;
61249;Laerm;47119;49.130;9.218;2022-12-20T03:31:12;45.85;32.94;64.39;;
61249;Laerm;47119;49.130;9.218;2022-12-20T03:33:47;41.63;33.52;55.50;;
61249;Laerm;47119;49.130;9.218;2022-12-20T03:36:17;45.47;33.32;63.06;;
61249;Laerm;47119;49.130;9.218;2022-12-20T03:38:52;45.40;34.11;63.40;;
61249;Laerm;47119;49.130;9.218;2022-12-20T03:41:22;41.52;33.93;53.49;;
61249;Laerm;47119;49.130;9.218;2022-12-20T03:43:49;45.57;34.40;61.24;;
61249;Laerm;47119;49.130;9.218;2022-12-20T03:46:17;41.92;33.78;56.60;;
61249;Laerm;47119;49.130;9.218;2022-12-20T03:48:48;39.53;32.95;51.94;;
61249;Laerm;47119;49.130;9.218;2022-12-20T03:51:18;47.81;33.43;64.19;;
61249;Laerm;47119;49.130;9.218;2022-12-20T03:53:45;38.38;32.61;52.92;;
61249;Laerm;47119;49.130;9.218;2022-12-20T03:56:13;46.07;34.13;62.82;;
61249;Laerm;47119;49.130;9.218;2022-12-20T03:58:42;45.29;34.10;58.44;;
61249;Laerm;47119;49.130;9.218;2022-12-20T04:01:21;42.50;34.61;54.80;;
61249;Laerm;47119;49.130;9.218;2022-12-20T04:03:50;49.15;36.42;63.27;;
61249;Laerm;47119;49.130;9.218;2022-12-20T04:06:19;49.71;35.50;70.31;;
61249;Laerm;47119;49.130;9.218;2022-12-20T04:08:49;49.94;37.46;65.07;;
61249;Laerm;47119;49.130;9.218;2022-12-20T04:11:23;48.03;36.82;60.59;;
61249;Laerm;47119;49.130;9.218;2022-12-20T04:14:00;50.70;38.27;64.01;;
61249;Laerm;47119;49.130;9.218;2022-12-20T04:16:29;48.39;36.98;65.15;;
61249;Laerm;47119;49.130;9.218;2022-12-20T04:18:57;47.36;37.77;61.18;;
61249;Laerm;47119;49.130;9.218;2022-12-20T04:21:31;51.29;37.53;68.48;;
61249;Laerm;47119;49.130;9.218;2022-12-20T04:24:04;50.42;36.90;64.70;;
61249;Laerm;47119;49.130;9.218;2022-12-20T04:26:55;43.80;36.38;52.17;;
61249;Laerm;47119;49.130;9.218;2022-12-20T04:29:22;48.65;38.24;61.23;;
61249;Laerm;47119;49.130;9.218;2022-12-20T04:31:52;45.82;38.24;55.53;;
61249;Laerm;47119;49.130;9.218;2022-12-20T04:34:22;46.50;37.25;60.10;;
61249;Laerm;47119;49.130;9.218;2022-12-20T04:36:49;47.79;38.36;61.14;;
61249;Laerm;47119;49.130;9.218;2022-12-20T04:39:26;46.81;35.32;63.44;;
61249;Laerm;47119;49.130;9.218;2022-12-20T04:42:14;49.31;37.08;62.66;;
61249;Laerm;47119;49.130;9.218;2022-12-20T04:44:44;48.68;38.05;64.97;;
61249;Laerm;47119;49.130;9.218;2022-12-20T04:47:13;46.33;37.12;64.87;;
61249;Laerm;47119;49.130;9.218;2022-12-20T04:49:42;49.85;37.81;67.06;;
61249;Laerm;47119;49.130;9.218;2022-12-20T04:52:09;60.25;38.15;80.87;;
61249;Laerm;47119;49.130;9.218;2022-12-20T04:54:54;50.27;36.56;67.65;;
61249;Laerm;47119;49.130;9.218;2022-12-20T04:57:25;49.74;37.78;62.68;;
61249;Laerm;47119;49.130;9.218;2022-12-20T04:59:57;47.89;38.61;60.43;;
61249;Laerm;47119;49.130;9.218;2022-12-20T05:02:24;54.07;38.17;73.78;;
61249;Laerm;47119;49.130;9.218;2022-12-20T05:05:02;48.48;38.00;63.22;;
61249;Laerm;47119;49.130;9.218;2022-12-20T05:07:34;49.59;37.34;63.31;;
61249;Laerm;47119;49.130;9.218;2022-12-20T05:10:03;46.57;39.23;62.62;;
61249;Laerm;47119;49.130;9.218;2022-12-20T05:12:30;52.06;41.11;66.93;;
61249;Laerm;47119;49.130;9.218;2022-12-20T05:15:00;46.25;37.73;55.42;;
61249;Laerm;47119;49.130;9.218;2022-12-20T05:17:27;51.14;39.09;63.48;;
61249;Laerm;47119;49.130;9.218;2022-12-20T05:19:54;53.08;41.35;65.76;;
61249;Laerm;47119;49.130;9.218;2022-12-20T05:22:23;50.67;37.83;65.94;;
61249;Laerm;47119;49.130;9.218;2022-12-20T05:25:10;51.03;40.80;66.64;;
61249;Laerm;47119;49.130;9.218;2022-12-20T05:27:58;51.31;41.44;63.46;;
61249;Laerm;47119;49.130;9.218;2022-12-20T05:30:28;52.56;40.68;64.62;;
61249;Laerm;47119;49.130;9.218;2022-12-20T05:32:55;51.03;42.10;62.27;;
61249;Laerm;47119;49.130;9.218;2022-12-20T05:35:23;50.44;41.20;63.24;;
61249;Laerm;47119;49.130;9.218;2022-12-20T05:37:57;52.42;41.66;72.34;;
61249;Laerm;47119;49.130;9.218;2022-12-20T05:40:25;54.73;43.42;66.88;;
61249;Laerm;47119;49.130;9.218;2022-12-20T05:42:53;53.72;43.51;63.12;;
61249;Laerm;47119;49.130;9.218;2022-12-20T05:45:25;51.92;43.83;63.67;;
61249;Laerm;47119;49.130;9.218;2022-12-20T05:47:58;50.44;39.73;64.29;;
61249;Laerm;47119;49.130;9.218;2022-12-20T05:50:26;51.70;42.77;64.92;;
61249;Laerm;47119;49.130;9.218;2022-12-20T05:53:23;49.80;41.21;62.69;;
61249;Laerm;47119;49.130;9.218;2022-12-20T05:55:53;52.75;40.32;65.44;;
61249;Laerm;47119;49.130;9.218;2022-12-20T05:58:26;57.77;42.25;75.31;;
61249;Laerm;47119;49.130;9.218;2022-12-20T06:01:00;52.02;44.08;64.27;;
61249;Laerm;47119;49.130;9.218;2022-12-20T06:03:34;55.83;45.86;66.37;;
61249;Laerm;47119;49.130;9.218;2022-12-20T06:06:06;53.76;44.01;65.50;;
61249;Laerm;47119;49.130;9.218;2022-12-20T06:08:35;51.80;42.89;63.49;;
61249;Laerm;47119;49.130;9.218;2022-12-20T06:11:06;52.07;42.95;62.71;;
61249;Laerm;47119;49.130;9.218;2022-12-20T06:13:43;56.59;43.69;71.69;;
61249;Laerm;47119;49.130;9.218;2022-12-20T06:16:11;52.84;44.17;64.01;;
61249;Laerm;47119;49.130;9.218;2022-12-20T06:18:38;52.99;44.20;63.25;;
61249;Laerm;47119;49.130;9.218;2022-12-20T06:21:05;53.81;45.27;65.51;;
61249;Laerm;47119;49.130;9.218;2022-12-20T06:23:32;54.17;42.65;66.32;;
61249;Laerm;47119;49.130;9.218;2022-12-20T06:26:12;54.92;44.56;65.39;;
61249;Laerm;47119;49.130;9.218;2022-12-20T06:28:48;55.80;48.52;65.59;;
61249;Laerm;47119;49.130;9.218;2022-12-20T06:31:23;53.58;42.05;65.37;;
61249;Laerm;47119;49.130;9.218;2022-12-20T06:33:53;53.95;44.55;63.37;;
61249;Laerm;47119;49.130;9.218;2022-12-20T06:36:22;55.54;44.27;71.73;;
61249;Laerm;47119;49.130;9.218;2022-12-20T06:38:49;58.35;47.49;71.32;;
61249;Laerm;47119;49.130;9.218;2022-12-20T06:41:19;54.99;48.62;64.85;;
61249;Laerm;47119;49.130;9.218;2022-12-20T06:43:48;56.73;46.10;72.00;;
61249;Laerm;47119;49.130;9.218;2022-12-20T06:46:16;56.48;46.80;69.11;;
61249;Laerm;47119;49.130;9.218;2022-12-20T06:48:44;55.28;45.06;67.71;;
61249;Laerm;47119;49.130;9.218;2022-12-20T06:51:12;54.91;47.42;67.18;;
61249;Laerm;47119;49.130;9.218;2022-12-20T06:53:39;56.01;43.97;68.21;;
61249;Laerm;47119;49.130;9.218;2022-12-20T06:56:09;55.71;46.55;72.95;;
61249;Laerm;47119;49.130;9.218;2022-12-20T06:58:37;55.19;45.88;64.78;;
61249;Laerm;47119;49.130;9.218;2022-12-20T07:01:04;54.42;46.68;64.29;;
61249;Laerm;47119;49.130;9.218;2022-12-20T07:03:32;58.40;50.45;67.41;;
61249;Laerm;47119;49.130;9.218;2022-12-20T07:05:59;58.59;53.56;64.56;;
61249;Laerm;47119;49.130;9.218;2022-12-20T07:08:30;54.22;45.40;65.69;;
61249;Laerm;47119;49.130;9.218;2022-12-20T07:11:03;53.33;45.67;65.87;;
61249;Laerm;47119;49.130;9.218;2022-12-20T07:13:31;53.20;45.60;64.19;;
61249;Laerm;47119;49.130;9.218;2022-12-20T07:16:00;53.96;43.30;65.33;;
61249;Laerm;47119;49.130;9.218;2022-12-20T07:22:23;55.04;45.26;66.00;;
61249;Laerm;47119;49.130;9.218;2022-12-20T07:24:50;53.15;46.40;65.78;;
61249;Laerm;47119;49.130;9.218;2022-12-20T07:27:18;54.99;46.58;69.44;;
61249;Laerm;47119;49.130;9.218;2022-12-20T07:29:47;58.99;46.25;72.46;;
61249;Laerm;47119;49.130;9.218;2022-12-20T07:32:16;57.48;46.09;66.98;;
61249;Laerm;47119;49.130;9.218;2022-12-20T07:34:43;54.20;47.18;63.86;;
61249;Laerm;47119;49.130;9.218;2022-12-20T07:37:10;55.85;47.18;66.05;;
61249;Laerm;47119;49.130;9.218;2022-12-20T07:39:37;55.59;47.74;70.36;;
61249;Laerm;47119;49.130;9.218;2022-12-20T07:42:07;56.15;47.31;66.12;;
61249;Laerm;47119;49.130;9.218;2022-12-20T07:44:41;55.22;47.75;67.05;;
61249;Laerm;47119;49.130;9.218;2022-12-20T07:47:11;54.53;45.26;71.43;;
61249;Laerm;47119;49.130;9.218;2022-12-20T07:49:39;56.65;44.85;69.54;;
61249;Laerm;47119;49.130;9.218;2022-12-20T07:52:07;55.05;45.71;68.71;;
61249;Laerm;47119;49.130;9.218;2022-12-20T07:54:43;54.38;45.07;69.32;;
61249;Laerm;47119;49.130;9.218;2022-12-20T07:57:16;54.64;46.16;64.39;;
61249;Laerm;47119;49.130;9.218;2022-12-20T07:59:50;59.32;46.02;72.52;;
61249;Laerm;47119;49.130;9.218;2022-12-20T08:02:26;55.64;47.37;68.26;;
61249;Laerm;47119;49.130;9.218;2022-12-20T08:04:56;56.04;47.40;69.28;;
61249;Laerm;47119;49.130;9.218;2022-12-20T08:07:24;56.04;45.81;72.72;;
61249;Laerm;47119;49.130;9.218;2022-12-20T08:09:53;64.10;47.05;78.58;;
61249;Laerm;47119;49.130;9.218;2022-12-20T08:12:23;59.22;43.86;77.45;;
61249;Laerm;47119;49.130;9.218;2022-12-20T08:15:20;53.62;41.94;66.82;;
61249;Laerm;47119;49.130;9.218;2022-12-20T08:17:50;54.93;46.75;65.96;;
61249;Laerm;47119;49.130;9.218;2022-12-20T08:20:19;53.99;45.57;66.82;;
61249;Laerm;47119;49.130;9.218;2022-12-20T08:22:46;55.04;45.17;74.35;;
61249;Laerm;47119;49.130;9.218;2022-12-20T08:25:14;53.19;45.61;64.34;;
61249;Laerm;47119;49.130;9.218;2022-12-20T08:27:43;52.79;45.04;63.56;;
61249;Laerm;47119;49.130;9.218;2022-12-20T08:30:12;52.39;43.41;68.06;;
61249;Laerm;47119;49.130;9.218;2022-12-20T08:32:39;62.45;41.88;80.92;;
61249;Laerm;47119;49.130;9.218;2022-12-20T08:35:09;54.88;46.11;65.04;;
61249;Laerm;47119;49.130;9.218;2022-12-20T08:37:42;56.70;47.01;72.81;;
61249;Laerm;47119;49.130;9.218;2022-12-20T08:40:10;54.52;43.78;80.01;;
61249;Laerm;47119;49.130;9.218;2022-12-20T08:42:40;54.83;45.52;65.75;;
61249;Laerm;47119;49.130;9.218;2022-12-20T08:45:08;54.25;44.96;68.27;;
61249;Laerm;47119;49.130;9.218;2022-12-20T08:47:36;58.35;47.71;71.46;;
61249;Laerm;47119;49.130;9.218;2022-12-20T08:50:04;54.79;44.13;65.70;;
61249;Laerm;47119;49.130;9.218;2022-12-20T08:52:31;55.52;46.55;65.07;;
61249;Laerm;47119;49.130;9.218;2022-12-20T08:55:03;54.48;45.53;74.76;;
61249;Laerm;47119;49.130;9.218;2022-12-20T08:57:30;56.13;47.66;65.23;;
61249;Laerm;47119;49.130;9.218;2022-12-20T08:59:57;55.31;46.08;68.24;;
61249;Laerm;47119;49.130;9.218;2022-12-20T09:02:25;56.63;46.56;75.67;;
61249;Laerm;47119;49.130;9.218;2022-12-20T09:04:52;52.39;45.10;66.79;;
61249;Laerm;47119;49.130;9.218;2022-12-20T09:07:19;54.31;45.58;64.65;;
61249;Laerm;47119;49.130;9.218;2022-12-20T09:09:46;54.41;46.01;67.57;;
61249;Laerm;47119;49.130;9.218;2022-12-20T09:12:15;55.68;46.41;69.19;;
61249;Laerm;47119;49.130;9.218;2022-12-20T09:14:42;58.39;47.58;70.45;;
61249;Laerm;47119;49.130;9.218;2022-12-20T09:17:12;55.65;48.28;69.49;;
61249;Laerm;47119;49.130;9.218;2022-12-20T09:19:51;58.86;47.27;75.89;;
61249;Laerm;47119;49.130;9.218;2022-12-20T09:22:20;54.40;46.08;67.70;;
61249;Laerm;47119;49.130;9.218;2022-12-20T09:24:47;55.78;47.53;68.89;;
61249;Laerm;47119;49.130;9.218;2022-12-20T09:27:18;55.63;46.23;69.27;;
61249;Laerm;47119;49.130;9.218;2022-12-20T09:29:50;53.99;46.12;68.47;;
61249;Laerm;47119;49.130;9.218;2022-12-20T09:32:17;55.68;45.58;72.08;;
61249;Laerm;47119;49.130;9.218;2022-12-20T09:34:45;55.65;46.01;64.81;;
61249;Laerm;47119;49.130;9.218;2022-12-20T09:37:15;54.56;46.69;65.85;;
61249;Laerm;47119;49.130;9.218;2022-12-20T09:39:42;53.52;42.07;63.14;;
61249;Laerm;47119;49.130;9.218;2022-12-20T09:42:12;55.15;44.05;71.20;;
61249;Laerm;47119;49.130;9.218;2022-12-20T09:44:42;55.90;47.36;68.16;;
61249;Laerm;47119;49.130;9.218;2022-12-20T09:47:17;58.06;46.01;70.99;;
61249;Laerm;47119;49.130;9.218;2022-12-20T09:50:56;53.76;46.00;67.15;;
61249;Laerm;47119;49.130;9.218;2022-12-20T09:53:41;56.59;47.87;67.39;;
61249;Laerm;47119;49.130;9.218;2022-12-20T09:56:26;54.46;45.81;69.72;;
61249;Laerm;47119;49.130;9.218;2022-12-20T09:59:02;53.48;44.05;65.12;;
61249;Laerm;47119;49.130;9.218;2022-12-20T10:01:34;53.28;43.96;66.62;;
61249;Laerm;47119;49.130;9.218;2022-12-20T10:04:19;54.60;45.28;64.32;;
61249;Laerm;47119;49.130;9.218;2022-12-20T10:13:39;57.73;45.45;74.18;;
61249;Laerm;47119;49.130;9.218;2022-12-20T10:16:31;54.74;46.21;66.62;;
61249;Laerm;47119;49.130;9.218;2022-12-20T10:19:48;58.07;45.05;74.44;;
61249;Laerm;47119;49.130;9.218;2022-12-20T10:22:35;53.83;45.48;65.94;;
61249;Laerm;47119;49.130;9.218;2022-12-20T10:25:16;53.34;44.51;64.05;;
61249;Laerm;47119;49.130;9.218;2022-12-20T10:27:46;55.38;46.08;65.78;;
61249;Laerm;47119;49.130;9.218;2022-12-20T10:31:04;56.59;45.35;75.61;;
61249;Laerm;47119;49.130;9.218;2022-12-20T10:34:16;54.43;46.05;68.54;;
61249;Laerm;47119;49.130;9.218;2022-12-20T10:37:10;54.56;45.76;62.89;;
61249;Laerm;47119;49.130;9.218;2022-12-20T10:39:54;56.42;45.73;72.88;;
61249;Laerm;47119;49.130;9.218;2022-12-20T10:42:42;55.30;45.56;66.25;;
61249;Laerm;47119;49.130;9.218;2022-12-20T10:45:43;54.31;44.34;70.86;;
61249;Laerm;47119;49.130;9.218;2022-12-20T10:48:31;55.11;45.22;67.58;;
61249;Laerm;47119;49.130;9.218;2022-12-20T10:51:19;56.47;45.52;71.60;;
61249;Laerm;47119;49.130;9.218;2022-12-20T10:53:55;54.60;43.60;69.00;;
61249;Laerm;47119;49.130;9.218;2022-12-20T10:56:28;55.62;45.40;66.23;;
61249;Laerm;47119;49.130;9.218;2022-12-20T10:59:32;54.87;43.21;68.36;;
61249;Laerm;47119;49.130;9.218;2022-12-20T11:02:28;55.04;44.76;65.76;;
61249;Laerm;47119;49.130;9.218;2022-12-20T11:05:00;54.87;44.12;70.21;;
61249;Laerm;47119;49.130;9.218;2022-12-20T11:07:30;56.49;43.86;72.64;;
61249;Laerm;47119;49.130;9.218;2022-12-20T11:10:18;54.84;43.25;71.68;;
61249;Laerm;47119;49.130;9.218;2022-12-20T11:12:52;55.07;45.38;69.29;;
61249;Laerm;47119;49.130;9.218;2022-12-20T11:15:23;53.58;44.10;64.13;;
61249;Laerm;47119;49.130;9.218;2022-12-20T11:18:26;53.61;44.28;66.20;;
61249;Laerm;47119;49.130;9.218;2022-12-20T11:21:12;54.11;42.98;71.00;;
61249;Laerm;47119;49.130;9.218;2022-12-20T11:23:46;55.97;46.45;71.86;;
61249;Laerm;47119;49.130;9.218;2022-12-20T11:26:39;58.01;44.77;91.31;;
61249;Laerm;47119;49.130;9.218;2022-12-20T11:29:46;53.94;44.38;62.59;;
61249;Laerm;47119;49.130;9.218;2022-12-20T11:32:31;55.04;44.10;73.48;;
61249;Laerm;47119;49.130;9.218;2022-12-20T11:35:10;55.35;44.85;73.79;;
61249;Laerm;47119;49.130;9.218;2022-12-20T11:37:55;54.86;46.55;68.34;;
61249;Laerm;47119;49.130;9.218;2022-12-20T11:40:31;56.02;46.36;69.18;;
61249;Laerm;47119;49.130;9.218;2022-12-20T11:43:23;55.90;43.87;67.02;;
61249;Laerm;47119;49.130;9.218;2022-12-20T11:46:14;53.57;44.95;64.97;;
61249;Laerm;47119;49.130;9.218;2022-12-20T11:49:02;57.11;43.14;71.23;;
61249;Laerm;47119;49.130;9.218;2022-12-20T11:51:44;58.66;44.15;79.79;;
61249;Laerm;47119;49.130;9.218;2022-12-20T11:54:22;55.76;42.86;77.54;;
61249;Laerm;47119;49.130;9.218;2022-12-20T11:56:59;54.70;43.56;70.97;;
61249;Laerm;47119;49.130;9.218;2022-12-20T11:59:37;54.93;44.70;73.84;;
61249;Laerm;47119;49.130;9.218;2022-12-20T12:02:45;56.68;46.96;79.96;;
61249;Laerm;47119;49.130;9.218;2022-12-20T12:05:42;55.47;47.32;73.32;;
61249;Laerm;47119;49.130;9.218;2022-12-20T12:08:27;55.69;44.71;65.29;;
61249;Laerm;47119;49.130;9.218;2022-12-20T12:11:14;54.83;43.39;64.88;;
61249;Laerm;47119;49.130;9.218;2022-12-20T12:13:48;54.86;47.62;69.65;;
61249;Laerm;47119;49.130;9.218;2022-12-20T12:16:28;57.92;44.76;79.85;;
61249;Laerm;47119;49.130;9.218;2022-12-20T12:19:35;59.34;45.63;78.33;;
61249;Laerm;47119;49.130;9.218;2022-12-20T12:22:10;55.32;42.86;67.83;;
61249;Laerm;47119;49.130;9.218;2022-12-20T12:24:46;53.37;43.41;69.26;;
61249;Laerm;47119;49.130;9.218;2022-12-20T12:27:28;54.31;43.04;68.81;;
61249;Laerm;47119;49.130;9.218;2022-12-20T12:29:57;56.31;47.98;68.05;;
61249;Laerm;47119;49.130;9.218;2022-12-20T12:32:32;54.16;43.00;64.45;;
61249;Laerm;47119;49.130;9.218;2022-12-20T12:35:35;54.23;45.16;67.33;;
61249;Laerm;47119;49.130;9.218;2022-12-20T12:45:02;56.63;45.93;75.03;;
61249;Laerm;47119;49.130;9.218;2022-12-20T12:47:53;56.12;44.02;68.26;;
61249;Laerm;47119;49.130;9.218;2022-12-20T12:50:27;55.10;45.28;66.69;;
61249;Laerm;47119;49.130;9.218;2022-12-20T12:52:59;54.42;45.42;66.25;;
61249;Laerm;47119;49.130;9.218;2022-12-20T12:55:43;53.99;44.72;65.02;;
61249;Laerm;47119;49.130;9.218;2022-12-20T12:58:32;54.78;45.89;67.78;;
61249;Laerm;47119;49.130;9.218;2022-12-20T13:26:51;55.63;45.46;68.23;;
61249;Laerm;47119;49.130;9.218;2022-12-20T13:29:25;57.23;43.38;71.27;;
61249;Laerm;47119;49.130;9.218;2022-12-20T13:31:53;71.17;49.76;91.90;;
61249;Laerm;47119;49.130;9.218;2022-12-20T13:34:52;56.29;46.21;73.66;;
61249;Laerm;47119;49.130;9.218;2022-12-20T13:37:52;54.58;43.21;64.70;;
61249;Laerm;47119;49.130;9.218;2022-12-20T13:40:30;56.95;47.50;72.00;;
61249;Laerm;47119;49.130;9.218;2022-12-20T13:43:15;61.03;46.73;76.23;;
61249;Laerm;47119;49.130;9.218;2022-12-20T13:45:52;57.35;46.42;73.08;;
61249;Laerm;47119;49.130;9.218;2022-12-20T13:48:45;54.17;44.25;66.12;;
61249;Laerm;47119;49.130;9.218;2022-12-20T13:51:29;53.83;45.61;69.37;;
61249;Laerm;47119;49.130;9.218;2022-12-20T13:54:18;54.53;45.65;67.28;;
61249;Laerm;47119;49.130;9.218;2022-12-20T13:56:54;55.28;45.03;66.67;;
61249;Laerm;47119;49.130;9.218;2022-12-20T13:59:37;55.09;43.47;65.72;;
61249;Laerm;47119;49.130;9.218;2022-12-20T14:02:27;57.84;46.70;76.72;;
61249;Laerm;47119;49.130;9.218;2022-12-20T14:05:06;53.47;41.81;74.56;;
61249;Laerm;47119;49.130;9.218;2022-12-20T14:08:00;54.03;44.30;71.33;;
61249;Laerm;47119;49.130;9.218;2022-12-20T14:10:32;53.90;42.60;66.67;;
61249;Laerm;47119;49.130;9.218;2022-12-20T14:13:36;54.99;43.17;67.81;;
61249;Laerm;47119;49.130;9.218;2022-12-20T14:16:10;59.39;44.12;75.65;;
61249;Laerm;47119;49.130;9.218;2022-12-20T14:19:14;64.10;46.94;79.88;;
61249;Laerm;47119;49.130;9.218;2022-12-20T14:22:54;55.22;43.15;67.51;;
61249;Laerm;47119;49.130;9.218;2022-12-20T14:25:36;56.28;43.63;69.03;;
61249;Laerm;47119;49.130;9.218;2022-12-20T14:28:05;54.91;45.82;68.28;;
61249;Laerm;47119;49.130;9.218;2022-12-20T14:30:42;56.14;46.35;67.31;;
61249;Laerm;47119;49.130;9.218;2022-12-20T14:33:36;54.44;45.99;65.14;;
61249;Laerm;47119;49.130;9.218;2022-12-20T14:36:29;54.53;44.97;68.27;;
61249;Laerm;47119;49.130;9.218;2022-12-20T14:38:57;56.56;45.11;73.48;;
61249;Laerm;47119;49.130;9.218;2022-12-20T14:41:34;55.97;46.91;76.84;;
61249;Laerm;47119;49.130;9.218;2022-12-20T14:44:15;56.59;46.36;71.08;;
61249;Laerm;47119;49.130;9.218;2022-12-20T14:46:48;59.09;46.96;72.36;;
61249;Laerm;47119;49.130;9.218;2022-12-20T14:49:24;56.90;45.84;81.44;;
61249;Laerm;47119;49.130;9.218;2022-12-20T14:52:06;55.54;46.02;67.72;;
61249;Laerm;47119;49.130;9.218;2022-12-20T14:54:44;54.16;45.20;63.73;;
61249;Laerm;47119;49.130;9.218;2022-12-20T14:57:24;55.58;45.67;64.54;;
61249;Laerm;47119;49.130;9.218;2022-12-20T15:00:00;54.54;46.80;63.11;;
61249;Laerm;47119;49.130;9.218;2022-12-20T15:02:38;55.86;47.58;66.99;;
61249;Laerm;47119;49.130;9.218;2022-12-20T15:05:45;54.55;46.67;68.76;;
61249;Laerm;47119;49.130;9.218;2022-12-20T15:08:17;54.66;45.23;63.69;;
61249;Laerm;47119;49.130;9.218;2022-12-20T15:11:11;55.73;46.63;68.62;;
61249;Laerm;47119;49.130;9.218;2022-12-20T15:13:52;54.06;46.16;64.11;;
61249;Laerm;47119;49.130;9.218;2022-12-20T15:16:24;55.30;46.10;66.40;;
61249;Laerm;47119;49.130;9.218;2022-12-20T15:18:54;54.51;46.32;67.93;;